createdAt,value
2023-04-03T00:00:20.747Z,17.70
2023-04-03T00:03:22.879Z,17.68
2023-04-03T00:06:25.894Z,17.67
2023-04-03T00:09:27.926Z,17.66
2023-04-03T00:12:30.186Z,17.67
2023-04-03T00:15:32.701Z,17.65
2023-04-03T00:18:34.920Z,17.65
2023-04-03T00:21:37.381Z,17.63
2023-04-03T00:24:39.711Z,17.61
2023-04-03T00:27:42.222Z,17.60
2023-04-03T00:30:44.269Z,17.60
2023-04-03T00:33:46.562Z,17.60
2023-04-03T00:36:48.615Z,17.58
2023-04-03T00:39:50.691Z,17.55
2023-04-03T00:42:57.796Z,17.56
2023-04-03T00:46:00.805Z,17.56
2023-04-03T00:49:02.948Z,17.54
2023-04-03T00:52:07.520Z,17.54
2023-04-03T00:55:10.814Z,17.52
2023-04-03T00:58:13.879Z,17.52
2023-04-03T01:01:20.972Z,17.50
2023-04-03T01:04:34.709Z,17.50
2023-04-03T01:07:38.070Z,17.50
2023-04-03T01:10:40.466Z,17.48
2023-04-03T01:13:42.551Z,17.50
2023-04-03T01:16:52.452Z,17.48
2023-04-03T01:20:22.818Z,17.46
2023-04-03T01:23:34.381Z,17.45
2023-04-03T01:26:36.702Z,17.45
2023-04-03T01:29:39.873Z,17.44
2023-04-03T01:32:41.943Z,17.43
2023-04-03T01:35:44.248Z,17.41
2023-04-03T01:38:46.412Z,17.41
2023-04-03T01:41:48.931Z,17.40
2023-04-03T01:44:51.053Z,17.37
2023-04-03T01:47:53.139Z,17.38
2023-04-03T01:50:55.437Z,17.36
2023-04-03T01:53:57.472Z,17.36
2023-04-03T01:56:59.564Z,17.34
2023-04-03T02:00:01.653Z,17.34
2023-04-03T02:03:04.154Z,17.33
2023-04-03T02:06:06.666Z,17.34
2023-04-03T02:09:08.870Z,17.31
2023-04-03T02:12:11.123Z,17.31
2023-04-03T02:15:13.155Z,17.29
2023-04-03T02:18:15.803Z,17.29
2023-04-03T02:21:18.056Z,17.29
2023-04-03T02:24:20.250Z,17.26
2023-04-03T02:27:22.457Z,17.26
2023-04-03T02:30:24.478Z,17.26
2023-04-03T02:33:26.581Z,17.24
2023-04-03T02:36:28.778Z,17.23
2023-04-03T02:39:32.142Z,17.23
2023-04-03T02:42:34.399Z,17.22
2023-04-03T02:45:36.533Z,17.21
2023-04-03T02:48:38.685Z,17.20
2023-04-03T02:51:40.763Z,17.19
2023-04-03T02:54:42.762Z,17.19
2023-04-03T02:57:44.801Z,17.18
2023-04-03T03:00:46.884Z,17.17
2023-04-03T03:03:49.034Z,17.17
2023-04-03T03:06:51.686Z,17.14
2023-04-03T03:09:53.917Z,17.16
2023-04-03T03:12:56.034Z,17.15
2023-04-03T03:15:58.493Z,17.13
2023-04-03T03:19:00.658Z,17.13
2023-04-03T03:22:02.790Z,17.11
2023-04-03T03:25:05.809Z,17.09
2023-04-03T03:28:08.484Z,17.09
2023-04-03T03:31:11.542Z,17.08
2023-04-03T03:34:13.904Z,17.06
2023-04-03T03:37:15.934Z,17.06
2023-04-03T03:40:18.254Z,17.07
2023-04-03T03:43:21.213Z,17.05
2023-04-03T03:46:23.317Z,17.03
2023-04-03T03:49:25.362Z,17.03
2023-04-03T03:52:27.550Z,17.03
2023-04-03T03:55:29.599Z,17.19
2023-04-03T03:58:31.967Z,17.32
2023-04-03T04:01:34.101Z,17.36
2023-04-03T04:04:36.236Z,17.50
2023-04-03T04:07:38.270Z,17.60
2023-04-03T04:10:40.584Z,17.68
2023-04-03T04:13:42.637Z,17.78
2023-04-03T04:16:44.724Z,17.80
2023-04-03T04:19:46.811Z,17.87
2023-04-03T04:22:48.847Z,17.99
2023-04-03T04:25:51.103Z,18.04
2023-04-03T04:28:53.282Z,18.07
2023-04-03T04:31:55.394Z,18.11
2023-04-03T04:34:57.506Z,18.21
2023-04-03T04:37:59.619Z,18.30
2023-04-03T04:41:01.676Z,18.35
2023-04-03T04:44:03.710Z,18.33
2023-04-03T04:47:06.051Z,18.32
2023-04-03T04:50:08.489Z,18.30
2023-04-03T04:53:10.789Z,18.29
2023-04-03T04:56:12.901Z,18.30
2023-04-03T04:59:14.939Z,18.30
2023-04-03T05:02:17.000Z,18.30
2023-04-03T05:05:19.069Z,18.40
2023-04-03T05:08:22.347Z,18.53
2023-04-03T05:11:25.120Z,18.57
2023-04-03T05:14:27.424Z,18.59
2023-04-03T05:17:29.468Z,18.58
2023-04-03T05:20:31.997Z,18.55
2023-04-03T05:23:34.082Z,18.53
2023-04-03T05:26:36.481Z,18.52
2023-04-03T05:29:38.553Z,18.55
2023-04-03T05:32:41.032Z,18.54
2023-04-03T05:35:44.934Z,18.57
2023-04-03T05:38:47.624Z,18.66
2023-04-03T05:41:49.919Z,18.73
2023-04-03T05:44:52.271Z,18.77
2023-04-03T05:47:54.522Z,18.73
2023-04-03T05:50:57.211Z,18.72
2023-04-03T05:54:35.595Z,18.79
2023-04-03T05:57:37.935Z,18.91
2023-04-03T06:00:40.099Z,18.92
2023-04-03T06:03:42.318Z,18.89
2023-04-03T06:06:52.921Z,18.86
2023-04-03T06:09:56.676Z,18.94
2023-04-03T06:12:58.745Z,19.00
2023-04-03T06:16:00.771Z,19.10
2023-04-03T06:19:03.383Z,19.12
2023-04-03T06:22:05.758Z,18.08
2023-04-03T06:25:08.420Z,18.65
2023-04-03T06:28:11.105Z,19.08
2023-04-03T06:31:13.197Z,19.31
2023-04-03T06:34:16.805Z,19.47
2023-04-03T06:37:21.495Z,19.56
2023-04-03T06:40:26.397Z,19.61
2023-04-03T06:43:28.483Z,19.73
2023-04-03T06:46:31.489Z,19.86
2023-04-03T06:49:33.649Z,19.99
2023-04-03T06:52:36.113Z,20.09
2023-04-03T06:55:38.415Z,20.15
2023-04-03T06:58:41.604Z,20.14
2023-04-03T07:01:43.733Z,20.18
2023-04-03T07:04:45.968Z,20.22
2023-04-03T07:07:48.049Z,20.25
2023-04-03T07:10:50.975Z,20.34
2023-04-03T07:13:54.285Z,20.39
2023-04-03T07:16:56.476Z,20.48
2023-04-03T07:19:58.548Z,20.55
2023-04-03T07:23:02.162Z,20.63
2023-04-03T07:26:05.121Z,20.73
2023-04-03T07:29:07.152Z,20.79
2023-04-03T07:32:09.336Z,20.96
2023-04-03T07:35:11.494Z,21.14
2023-04-03T07:38:14.283Z,21.29
2023-04-03T07:41:18.617Z,21.34
2023-04-03T07:44:20.709Z,21.53
2023-04-03T07:47:23.243Z,21.52
2023-04-03T07:50:26.085Z,21.63
2023-04-03T07:53:28.446Z,21.68
2023-04-03T07:56:30.591Z,21.65
2023-04-03T07:59:32.631Z,21.77
2023-04-03T08:02:34.762Z,21.81
2023-04-03T08:05:44.416Z,21.88
2023-04-03T08:08:46.769Z,21.94
2023-04-03T08:11:48.862Z,21.97
2023-04-03T08:14:51.068Z,21.90
2023-04-03T08:17:53.328Z,21.66
2023-04-03T08:20:55.654Z,21.52
2023-04-03T08:23:58.254Z,21.33
2023-04-03T08:27:00.498Z,21.43
2023-04-03T08:30:02.900Z,21.43
2023-04-03T08:33:05.149Z,21.54
2023-04-03T08:36:16.768Z,21.46
2023-04-03T08:39:18.889Z,21.38
2023-04-03T08:42:36.600Z,21.35
2023-04-03T08:45:51.121Z,21.32
2023-04-03T08:48:54.278Z,21.34
2023-04-03T08:51:57.136Z,21.38
2023-04-03T08:55:04.030Z,21.40
2023-04-03T08:58:10.745Z,21.25
2023-04-03T09:01:28.451Z,21.23
2023-04-03T09:04:36.107Z,21.04
2023-04-03T09:07:44.292Z,20.96
2023-04-03T09:10:46.429Z,21.01
2023-04-03T09:14:10.203Z,21.13
2023-04-03T09:17:28.097Z,21.16
2023-04-03T09:20:44.926Z,21.18
2023-04-03T09:24:08.658Z,21.11
2023-04-03T09:27:12.278Z,20.89
2023-04-03T09:30:16.999Z,20.78
2023-04-03T09:33:19.429Z,20.74
2023-04-03T09:36:44.473Z,20.70
2023-04-03T09:39:52.194Z,20.64
2023-04-03T09:43:21.626Z,20.57
2023-04-03T09:46:30.135Z,20.57
2023-04-03T09:49:32.332Z,20.60
2023-04-03T09:52:35.802Z,20.62
2023-04-03T09:55:44.472Z,20.60
2023-04-03T09:58:51.061Z,20.59
2023-04-03T10:02:03.709Z,20.59
2023-04-03T10:05:37.368Z,20.71
2023-04-03T10:08:41.600Z,20.70
2023-04-03T10:12:07.953Z,20.65
2023-04-03T10:15:15.354Z,20.65
2023-04-03T10:18:32.280Z,20.61
2023-04-03T10:21:48.585Z,20.61
2023-04-03T10:25:05.534Z,20.61
2023-04-03T10:28:20.435Z,20.59
2023-04-03T10:31:46.987Z,20.55
2023-04-03T10:35:02.667Z,20.51
2023-04-03T10:38:14.077Z,20.55
2023-04-03T10:41:28.818Z,20.68
2023-04-03T10:45:11.065Z,20.66
2023-04-03T10:48:26.943Z,20.87
2023-04-03T10:51:57.802Z,20.84
2023-04-03T10:55:08.272Z,20.88
2023-04-03T10:58:20.902Z,20.87
2023-04-03T11:01:30.590Z,20.92
2023-04-03T11:04:37.134Z,20.89
2023-04-03T11:07:42.166Z,20.89
2023-04-03T11:10:47.478Z,20.93
2023-04-03T11:14:10.586Z,20.96
2023-04-03T11:17:24.715Z,21.03
2023-04-03T11:20:35.741Z,21.01
2023-04-03T11:23:49.647Z,21.00
2023-04-03T11:26:54.555Z,21.10
2023-04-03T11:29:57.706Z,21.11
2023-04-03T11:33:29.391Z,21.06
2023-04-03T11:36:37.264Z,20.90
2023-04-03T11:39:47.107Z,20.77
2023-04-03T11:42:52.306Z,20.69
2023-04-03T11:46:00.582Z,20.69
2023-04-03T11:49:02.682Z,20.68
2023-04-03T11:52:04.902Z,20.64
2023-04-03T11:55:48.574Z,20.61
2023-04-03T11:59:15.362Z,20.58
2023-04-03T12:02:51.131Z,20.59
2023-04-03T12:06:18.599Z,20.64
2023-04-03T12:09:43.153Z,20.63
2023-04-03T12:12:58.630Z,20.66
2023-04-03T12:16:01.257Z,20.64
2023-04-03T12:19:05.692Z,20.68
2023-04-03T12:22:10.684Z,20.63
2023-04-03T12:25:48.494Z,20.64
2023-04-03T12:28:53.731Z,20.64
2023-04-03T12:32:18.165Z,20.69
2023-04-03T12:35:44.297Z,20.62
2023-04-03T12:39:09.001Z,20.50
2023-04-03T12:42:52.221Z,20.43
2023-04-03T12:46:17.010Z,20.42
2023-04-03T12:49:42.662Z,20.47
2023-04-03T12:52:49.827Z,20.53
2023-04-03T12:55:56.377Z,20.54
2023-04-03T12:59:17.798Z,20.48
2023-04-03T13:02:27.291Z,20.41
2023-04-03T13:05:30.616Z,20.39
2023-04-03T13:08:33.211Z,20.32
2023-04-03T13:11:39.316Z,20.29
2023-04-03T13:14:51.893Z,20.30
2023-04-03T13:17:55.300Z,20.28
2023-04-03T13:21:05.857Z,20.27
2023-04-03T13:24:15.224Z,20.29
2023-04-03T13:27:18.043Z,20.27
2023-04-03T13:30:33.607Z,20.25
2023-04-03T13:33:39.001Z,20.22
2023-04-03T13:36:46.450Z,20.18
2023-04-03T13:40:00.505Z,20.18
2023-04-03T13:43:17.205Z,20.21
2023-04-03T13:46:19.322Z,20.20
2023-04-03T13:49:23.496Z,20.19
2023-04-03T13:52:31.947Z,20.17
2023-04-03T13:55:37.254Z,20.16
2023-04-03T13:58:41.137Z,20.13
2023-04-03T14:01:45.441Z,20.12
2023-04-03T14:04:53.993Z,20.12
2023-04-03T14:07:56.419Z,20.10
2023-04-03T14:10:58.673Z,20.07
2023-04-03T14:14:05.632Z,20.07
2023-04-03T14:17:28.667Z,20.04
2023-04-03T14:20:30.873Z,20.04
2023-04-03T14:23:33.964Z,20.00
2023-04-03T14:26:36.360Z,19.98
2023-04-03T14:29:38.372Z,19.96
2023-04-03T14:32:40.578Z,19.90
2023-04-03T14:35:43.147Z,19.87
2023-04-03T14:38:47.727Z,19.86
2023-04-03T14:41:49.906Z,19.83
2023-04-03T14:44:52.914Z,19.86
2023-04-03T14:47:57.498Z,19.89
2023-04-03T14:51:05.657Z,19.88
2023-04-03T14:54:15.887Z,19.88
2023-04-03T14:57:18.553Z,19.85
2023-04-03T15:00:22.204Z,19.86
2023-04-03T15:03:24.985Z,19.87
2023-04-03T15:06:27.625Z,19.89
2023-04-03T15:09:30.060Z,19.92
2023-04-03T15:12:32.101Z,19.92
2023-04-03T15:15:36.294Z,19.89
2023-04-03T15:18:39.861Z,19.86
2023-04-03T15:21:41.901Z,19.84
2023-04-03T15:24:44.642Z,19.80
2023-04-03T15:27:46.853Z,19.79
2023-04-03T15:30:49.095Z,19.77
2023-04-03T15:33:51.145Z,19.79
2023-04-03T15:36:56.004Z,19.79
2023-04-03T15:39:58.211Z,19.76
2023-04-03T15:43:00.494Z,19.87
2023-04-03T15:46:03.045Z,19.89
2023-04-03T15:49:05.988Z,19.92
2023-04-03T15:52:08.219Z,20.16
2023-04-03T15:55:10.543Z,20.13
2023-04-03T15:58:12.715Z,20.10
2023-04-03T16:01:14.832Z,20.03
2023-04-03T16:04:18.691Z,19.98
2023-04-03T16:07:21.733Z,19.91
2023-04-03T16:10:23.977Z,19.90
2023-04-03T16:13:26.083Z,19.95
2023-04-03T16:16:28.477Z,20.07
2023-04-03T16:19:31.358Z,20.24
2023-04-03T16:22:34.652Z,20.32
2023-04-03T16:25:36.851Z,20.43
2023-04-03T16:28:38.979Z,20.45
2023-04-03T16:31:41.153Z,20.43
2023-04-03T16:34:43.262Z,20.25
2023-04-03T16:37:45.899Z,20.25
2023-04-03T16:40:49.327Z,20.21
2023-04-03T16:43:51.544Z,20.07
2023-04-03T16:46:53.780Z,19.96
2023-04-03T16:49:55.918Z,19.88
2023-04-03T16:52:58.213Z,19.83
2023-04-03T16:56:00.396Z,19.77
2023-04-03T16:59:02.654Z,19.83
2023-04-03T17:02:04.866Z,19.85
2023-04-03T17:05:07.837Z,19.77
2023-04-03T17:08:09.979Z,19.77
2023-04-03T17:11:12.099Z,19.69
2023-04-03T17:14:14.142Z,19.61
2023-04-03T17:17:18.887Z,19.58
2023-04-03T17:20:21.291Z,19.53
2023-04-03T17:23:24.866Z,19.50
2023-04-03T17:26:27.542Z,19.46
2023-04-03T17:29:29.581Z,19.44
2023-04-03T17:32:31.848Z,19.42
2023-04-03T17:35:33.988Z,19.39
2023-04-03T17:38:36.245Z,19.36
2023-04-03T17:41:38.330Z,19.33
2023-04-03T17:44:40.439Z,19.33
2023-04-03T17:47:42.574Z,19.31
2023-04-03T17:50:44.631Z,19.29
2023-04-03T17:53:47.254Z,19.27
2023-04-03T17:56:49.292Z,19.24
2023-04-03T17:59:53.795Z,19.22
2023-04-03T18:02:55.970Z,19.20
2023-04-03T18:05:57.988Z,19.20
2023-04-03T18:09:07.368Z,19.15
2023-04-03T18:12:10.437Z,19.14
2023-04-03T18:15:12.806Z,18.39
2023-04-03T18:18:15.934Z,18.71
2023-04-03T18:21:18.203Z,18.80
2023-04-03T18:24:21.643Z,18.86
2023-04-03T18:27:26.718Z,18.87
2023-04-03T18:30:29.585Z,18.89
2023-04-03T18:33:31.673Z,18.87
2023-04-03T18:36:33.881Z,18.88
2023-04-03T18:39:36.732Z,18.86
2023-04-03T18:42:41.608Z,18.86
2023-04-03T18:45:44.009Z,18.84
2023-04-03T18:48:47.523Z,18.83
2023-04-03T18:51:50.260Z,18.83
2023-04-03T18:54:52.344Z,18.81
2023-04-03T18:57:54.393Z,18.79
2023-04-03T19:00:56.625Z,18.77
2023-04-03T19:03:58.675Z,18.74
2023-04-03T19:07:05.344Z,18.72
2023-04-03T19:10:08.233Z,18.71
2023-04-03T19:13:10.290Z,18.70
2023-04-03T19:16:12.395Z,18.68
2023-04-03T19:19:14.550Z,18.67
2023-04-03T19:22:16.697Z,18.65
2023-04-03T19:25:19.916Z,18.64
2023-04-03T19:28:21.959Z,18.63
2023-04-03T19:31:24.080Z,18.59
2023-04-03T19:34:26.584Z,18.61
2023-04-03T19:37:28.788Z,18.57
2023-04-03T19:40:32.297Z,18.56
2023-04-03T19:43:34.592Z,18.54
2023-04-03T19:46:36.702Z,18.53
2023-04-03T19:49:39.040Z,18.52
2023-04-03T19:52:41.190Z,18.50
2023-04-03T19:55:45.610Z,18.49
2023-04-03T19:58:53.621Z,18.47
2023-04-03T20:01:57.014Z,18.47
2023-04-03T20:04:59.057Z,18.46
2023-04-03T20:08:01.257Z,18.46
2023-04-03T20:11:03.304Z,18.46
2023-04-03T20:14:05.385Z,18.50
2023-04-03T20:17:07.472Z,18.52
2023-04-03T20:20:10.442Z,18.52
2023-04-03T20:23:13.189Z,18.54
2023-04-03T20:26:24.494Z,18.52
2023-04-03T20:29:27.225Z,18.51
2023-04-03T20:32:30.021Z,18.51
2023-04-03T20:35:32.998Z,18.51
2023-04-03T20:38:35.184Z,18.51
2023-04-03T20:41:38.710Z,18.50
2023-04-03T20:44:40.715Z,18.48
2023-04-03T20:47:42.861Z,18.49
2023-04-03T20:50:45.963Z,18.47
2023-04-03T20:53:48.809Z,18.39
2023-04-03T20:56:51.341Z,18.37
2023-04-03T20:59:53.638Z,18.34
2023-04-03T21:02:57.179Z,18.30
2023-04-03T21:06:03.779Z,18.28
2023-04-03T21:09:44.729Z,18.27
2023-04-03T21:13:25.282Z,18.25
2023-04-03T21:16:27.287Z,18.24
2023-04-03T21:19:30.026Z,18.21
2023-04-03T21:22:32.028Z,18.20
2023-04-03T21:25:34.424Z,18.19
2023-04-03T21:28:36.989Z,18.15
2023-04-03T21:31:56.946Z,18.13
2023-04-03T21:34:58.987Z,18.13
2023-04-03T21:38:01.210Z,18.12
2023-04-03T21:41:03.723Z,18.11
2023-04-03T21:44:06.162Z,18.09
2023-04-03T21:47:08.273Z,18.08
2023-04-03T21:50:10.634Z,18.06
2023-04-03T21:53:12.680Z,18.04
2023-04-03T21:56:14.739Z,18.04
2023-04-03T21:59:16.974Z,18.03
2023-04-03T22:02:19.097Z,18.00
2023-04-03T22:05:21.210Z,17.99
2023-04-03T22:08:23.318Z,17.98
2023-04-03T22:11:27.023Z,17.97
2023-04-03T22:14:30.446Z,17.96
2023-04-03T22:17:32.718Z,17.94
2023-04-03T22:20:34.754Z,17.94
2023-04-03T22:23:37.584Z,17.91
2023-04-03T22:26:40.638Z,17.91
2023-04-03T22:29:42.652Z,17.91
2023-04-03T22:32:44.736Z,17.88
2023-04-03T22:35:47.788Z,17.88
2023-04-03T22:38:49.869Z,17.85
2023-04-03T22:41:52.513Z,17.83
2023-04-03T22:44:54.556Z,17.81
2023-04-03T22:47:58.671Z,17.81
2023-04-03T22:51:01.428Z,17.80
2023-04-03T22:54:03.577Z,17.78
2023-04-03T22:57:05.624Z,17.78
2023-04-03T23:00:09.402Z,17.77
2023-04-03T23:03:12.868Z,17.75
2023-04-03T23:06:15.673Z,17.75
2023-04-03T23:09:17.955Z,17.73
2023-04-03T23:12:20.025Z,17.70
2023-04-03T23:15:22.090Z,17.68
2023-04-03T23:18:25.840Z,17.67
2023-04-03T23:21:27.886Z,17.67
2023-04-03T23:24:29.923Z,17.65
2023-04-03T23:27:32.017Z,17.63
2023-04-03T23:30:34.121Z,17.61
2023-04-03T23:33:38.102Z,17.61
2023-04-03T23:36:40.103Z,17.58
2023-04-03T23:39:42.168Z,17.60
2023-04-03T23:42:44.206Z,17.56
2023-04-03T23:45:46.602Z,17.58
2023-04-03T23:48:48.780Z,17.54
2023-04-03T23:51:51.014Z,17.52
2023-04-03T23:54:53.076Z,17.51
2023-04-03T23:57:55.386Z,17.50
